Bras d'Or Lakes: Past 24 Hour Conditions

 

Northeast Burgeo Bank - 44255

07:00 AM ADT 22 September 2014Buoy position: 47.27N 57.37W
This table is a summary of hourly weather conditions for the past 24 hours.
Date / Time
(ADT)
Wind(knots) Wave height(m) Wave period(s) Pressure(kPa) Air tempC) Water tempC)
22 September 2014
7:00 SSE 29 gust 37 2.6 7.0 101.0 17 13
6:00 SSE 25 gust 31 2.2 6.0 101.1 17 13
5:00 SSE 25 gust 31 2.0 6.0 101.3 17 13
4:00 SSE 19 gust 23 1.7 7.0 101.4 16 13
3:00 SSE 16 gust 19 1.6 7.0 101.5 16 13
2:00 S 14 gust 16 1.8 6.0 101.7 16 13
1:00 S 16 gust 18 1.8 7.0 101.7 16 13
0:00 S 14 gust 16 2.0 6.0 101.8 16 13
21 September 2014
23:00 S 14 gust 16 2.1 7.0 101.9 16 13
22:00 SSW 16 gust 18 2.1 7.0 101.9 16 13
21:00 SSW 18 gust 21 2.1 7.0 101.9 16 13
20:00 SSW 19 gust 23 2.1 7.0 101.8 16 13
19:00 SSW 16 gust 18 2.1 8.0 101.8 16 13
18:00 SSW 16 gust 19 2.2 7.0 101.8 16 14
17:00 SSW 18 gust 23 2.2 7.0 101.8 16 14
16:00 SSW 18 gust 19 2.3 8.0 101.8 16 14
15:00 SSW 19 gust 21 2.5 8.0 101.8 15 13
14:00 SSW 19 gust 23 2.4 7.0 101.8 15 13
13:00 SSW 16 gust 19 2.5 8.0 101.9 15 13
12:00 SSW 18 gust 21 2.7 8.0 101.9 15 13
11:00 SW 19 gust 23 2.8 8.0 101.9 15 13
10:00 SW 19 gust 23 2.8 8.0 101.9 15 13
9:00 SW 21 gust 27 3.1 9.0 101.9 15 13
8:00 SW 19 gust 23 3.1 8.0 101.9 15 14
7:00 SW 19 gust 23 3.1 8.0 101.8 15 14
 
Map of Atlantic - Newfoundland marine weather areas Southwestern Grand Banks - 44138 Banquereau - 44139 Tail of the Bank - 44140 Nickerson Bank - 44251 Northeast Burgeo Bank - 44255 Blanc-Sablon Airport Cap Whittle Chevery Natashquan Airport Heath Point Miscou Island Grand Étang Ingonish Beach North Mountain St.Paul Island J.A. Douglas McCurdy Sydney Airport Charlottetown Airport East Point North Cape Argentia Bonavista Burgeo Cape Race Corner Brook Daniel's Harbour Englee Ferolle Point La Scie Port aux Basques Rocky Harbour Sagona Island St. Anthony Airport St. John's Int'l Airport St. Lawrence Stephenville Airport Twillingate Winterland Wreckhouse Cartwright Airport Mary's Harbour Grates Cove Pool's Island Marticot Island Long Pond Îles de la Madeleine Airport
Legend: buoyBuoy land stationLand Station